Time;durP1;ratioP1;P1;durP2;ratioP2;P2;SDS_P1;SDS_P2;PMS_P1;PMS_P2;Temp;Humidity;BMP_temperature;BMP_pressure;BME280_temperature;BME280_humidity;BME280_pressure;Samples;Min_cycle;Max_cycle;Signal;HPM_P1;HPM_P2
2023/03/03 00:01:24;;;;;;;86.80;46.00;;;;;;;-2.77;87.05;100885.35;107478;1253;81477;-58
2023/03/03 00:04:04;;;;;;;90.00;44.80;;;;;;;-2.76;86.87;100882.45;107365;1253;83863;-57
2023/03/03 00:06:43;;;;;;;87.80;46.00;;;;;;;-2.73;86.83;100880.88;107465;1253;98747;-61
2023/03/03 00:09:21;;;;;;;85.50;43.20;;;;;;;-2.70;87.02;100875.41;107470;1253;87821;-63
2023/03/03 00:12:18;;;;;;;83.30;42.50;;;;;;;-2.71;86.99;100875.61;107481;1254;92461;-62
2023/03/03 00:14:53;;;;;;;85.10;43.90;;;;;;;-2.69;86.97;100871.96;107489;1253;81557;-58
2023/03/03 00:17:36;;;;;;;86.70;42.30;;;;;;;-2.65;87.26;100874.88;107508;1257;82732;-58
2023/03/03 00:20:31;;;;;;;81.40;41.10;;;;;;;-2.62;87.17;100874.01;107472;1253;98605;-60
2023/03/03 00:23:20;;;;;;;81.80;40.50;;;;;;;-2.64;86.94;100875.36;107468;1253;88684;-62
2023/03/03 00:25:56;;;;;;;80.70;41.00;;;;;;;-2.68;86.94;100874.19;107439;1257;93693;-63
2023/03/03 00:28:41;;;;;;;90.80;45.20;;;;;;;-2.72;86.84;100864.95;107474;1253;81081;-63
2023/03/03 00:31:31;;;;;;;83.80;41.80;;;;;;;-2.73;87.01;100857.77;107373;1253;82480;-58
2023/03/03 00:34:26;;;;;;;82.90;42.40;;;;;;;-2.74;86.88;100859.73;107487;1257;98583;-62
2023/03/03 00:37:22;;;;;;;63.60;34.10;;;;;;;-2.72;86.93;100853.48;107429;1253;88774;-64
2023/03/03 00:40:25;;;;;;;78.50;41.50;;;;;;;-2.73;86.99;100850.34;107495;1253;95385;-59
2023/03/03 00:43:15;;;;;;;83.80;40.70;;;;;;;-2.73;86.90;100844.56;107460;1253;81326;-61
2023/03/03 00:45:56;;;;;;;77.00;42.20;;;;;;;-2.70;87.35;100842.58;107452;1253;80499;-58
2023/03/03 00:48:49;;;;;;;82.40;39.00;;;;;;;-2.69;87.24;100833.89;107499;1257;99491;-58
2023/03/03 00:51:38;;;;;;;81.50;39.90;;;;;;;-2.65;87.23;100836.28;107441;1257;88449;-58
2023/03/03 00:54:23;;;;;;;74.80;39.60;;;;;;;-2.64;87.18;100834.30;107456;1254;92690;-57
2023/03/03 00:57:04;;;;;;;78.70;39.90;;;;;;;-2.64;87.08;100829.89;107454;1253;79760;-56
2023/03/03 00:59:43;;;;;;;76.70;40.00;;;;;;;-2.63;87.33;100827.35;107202;1253;80476;-60
2023/03/03 01:02:23;;;;;;;78.80;39.90;;;;;;;-2.66;87.15;100819.59;107481;1253;96447;-60
2023/03/03 01:05:02;;;;;;;76.60;38.90;;;;;;;-2.71;86.96;100817.96;107484;1253;86897;-56
2023/03/03 01:07:42;;;;;;;74.30;38.70;;;;;;;-2.75;87.07;100814.88;107468;1253;95184;-57
2023/03/03 01:10:29;;;;;;;75.80;39.00;;;;;;;-2.76;87.06;100812.98;107465;1253;81492;-61
2023/03/03 01:13:08;;;;;;;79.10;39.30;;;;;;;-2.78;87.07;100807.30;107471;1253;82494;-61
2023/03/03 01:15:49;;;;;;;71.60;36.80;;;;;;;-2.79;87.17;100801.05;107497;1253;97662;-60
2023/03/03 01:18:31;;;;;;;72.20;38.20;;;;;;;-2.80;86.99;100797.20;107468;1253;88780;-58
2023/03/03 01:21:07;;;;;;;69.70;36.60;;;;;;;-2.79;87.33;100793.10;107488;1253;93730;-58
2023/03/03 01:23:51;;;;;;;74.90;37.80;;;;;;;-2.78;87.15;100784.42;107475;1253;80931;-57
2023/03/03 01:26:32;;;;;;;73.50;37.90;;;;;;;-2.78;87.27;100780.67;107489;1253;82437;-56
2023/03/03 01:29:17;;;;;;;69.00;36.60;;;;;;;-2.79;87.26;100783.74;107485;1253;97814;-60
2023/03/03 01:32:01;;;;;;;72.20;37.10;;;;;;;-2.79;87.20;100780.09;107481;1253;89386;-61
2023/03/03 01:34:40;;;;;;;70.00;37.50;;;;;;;-2.82;87.04;100773.76;107448;1253;94381;-62
2023/03/03 01:37:20;;;;;;;70.20;37.30;;;;;;;-2.85;87.26;100771.63;107515;1253;81043;-63
2023/03/03 01:39:56;;;;;;;73.00;36.00;;;;;;;-2.87;87.24;100769.28;107490;1253;82568;-63
2023/03/03 01:42:41;;;;;;;71.90;38.40;;;;;;;-2.90;87.23;100767.19;107489;1253;97641;-64
2023/03/03 01:45:22;;;;;;;69.60;36.80;;;;;;;-2.89;87.14;100763.62;107510;1253;89055;-58
2023/03/03 01:48:06;;;;;;;72.60;38.30;;;;;;;-2.89;87.27;100759.40;107443;1253;93950;-59
2023/03/03 01:50:49;;;;;;;67.50;34.80;;;;;;;-2.89;87.28;100755.52;107490;1253;82367;-55
2023/03/03 01:53:35;;;;;;;71.10;35.30;;;;;;;-2.92;87.34;100756.27;107516;1253;80959;-54
2023/03/03 01:56:12;;;;;;;71.50;35.90;;;;;;;-2.93;87.24;100753.30;107461;1253;99162;-64
2023/03/03 01:58:54;;;;;;;68.70;35.30;;;;;;;-2.94;87.43;100753.34;107518;1257;88752;-62
2023/03/03 02:01:37;;;;;;;67.70;36.30;;;;;;;-2.92;87.67;100753.58;107491;1253;94864;-62
2023/03/03 02:04:17;;;;;;;66.20;34.30;;;;;;;-2.92;87.47;100752.35;107540;1253;78856;-57
2023/03/03 02:07:03;;;;;;;63.80;34.80;;;;;;;-2.90;87.38;100752.38;107506;1253;81659;-55
2023/03/03 02:09:52;;;;;;;67.20;35.80;;;;;;;-2.92;87.18;100750.59;107481;1253;98210;-62
2023/03/03 02:12:39;;;;;;;66.20;35.30;;;;;;;-2.97;87.23;100750.50;107527;1253;89145;-65
2023/03/03 02:15:31;;;;;;;70.70;36.50;;;;;;;-3.01;87.35;100751.99;107478;1253;93771;-61
2023/03/03 02:18:14;;;;;;;64.60;34.20;;;;;;;-3.03;87.37;100754.05;107463;1257;80188;-60
2023/03/03 02:21:06;;;;;;;62.60;36.20;;;;;;;-3.04;87.53;100759.22;107534;1253;82169;-61
2023/03/03 02:23:54;;;;;;;64.10;33.80;;;;;;;-3.05;87.36;100755.91;107475;1253;99155;-59
2023/03/03 02:26:40;;;;;;;65.20;36.50;;;;;;;-3.06;87.52;100750.02;107511;1253;87349;-60
2023/03/03 02:29:22;;;;;;;65.70;34.80;;;;;;;-3.05;87.60;100756.30;107509;1253;95615;-54
2023/03/03 02:31:58;;;;;;;66.50;32.80;;;;;;;-3.06;87.45;100757.76;107475;1257;79066;-56
2023/03/03 02:34:45;;;;;;;;;;;;;;;-3.06;87.58;100760.59;107532;1253;80635;-63
2023/03/03 02:37:24;;;;;;;61.50;32.20;;;;;;;-3.06;87.44;100755.84;107496;1253;98812;-63
2023/03/03 02:39:58;;;;;;;64.60;33.90;;;;;;;-3.04;87.60;100756.81;107538;1253;89025;-58
2023/03/03 02:42:32;;;;;;;;;;;;;;;-3.05;87.83;100757.71;107521;1253;95385;-58
2023/03/03 02:45:10;;;;;;;69.50;34.70;;;;;;;-3.05;87.93;100757.73;107488;1253;79762;-57
2023/03/03 02:47:53;;;;;;;61.60;33.90;;;;;;;-3.06;87.92;100752.83;107509;1253;83385;-56
2023/03/03 02:50:29;;;;;;;63.70;34.20;;;;;;;-3.07;87.88;100749.75;107482;1253;97928;-63
2023/03/03 02:53:06;;;;;;;67.50;35.90;;;;;;;-3.07;87.94;100749.71;107527;1253;88667;-63
2023/03/03 02:55:51;;;;;;;66.20;34.90;;;;;;;-3.08;87.89;100750.48;107509;1253;94645;-62
2023/03/03 02:58:31;;;;;;;73.60;36.20;;;;;;;-3.10;87.93;100747.80;107457;1252;79715;-63
2023/03/03 03:01:07;;;;;;;70.80;36.30;;;;;;;-3.09;88.04;100738.20;107641;1251;82641;-56
2023/03/03 03:03:44;;;;;;;74.00;37.10;;;;;;;-3.03;88.36;100741.54;107662;1254;97193;-56
2023/03/03 03:06:26;;;;;;;66.40;35.50;;;;;;;-2.97;88.53;100738.23;107618;1253;87566;-64
2023/03/03 03:09:08;;;;;;;73.50;37.20;;;;;;;-2.99;88.15;100734.61;107669;1255;94910;-61
2023/03/03 03:11:46;;;;;;;74.90;38.30;;;;;;;-2.93;88.47;100731.11;107623;1252;80555;-59
2023/03/03 03:14:26;;;;;;;66.50;37.60;;;;;;;-2.89;88.68;100730.33;107639;1253;81017;-56
2023/03/03 03:17:10;;;;;;;69.60;38.50;;;;;;;-2.81;88.84;100731.92;107651;1254;98685;-56
2023/03/03 03:19:53;;;;;;;71.00;37.30;;;;;;;-2.73;89.07;100730.16;107631;1254;89752;-57
2023/03/03 03:22:39;;;;;;;68.20;36.50;;;;;;;-2.70;89.20;100728.36;107607;1252;95231;-50
2023/03/03 03:25:24;;;;;;;72.60;38.30;;;;;;;-2.70;88.89;100732.45;107636;1254;81729;-62
2023/03/03 03:28:06;;;;;;;74.00;37.50;;;;;;;-2.75;88.98;100731.71;107651;1254;82897;-61
2023/03/03 03:30:44;;;;;;;66.60;35.50;;;;;;;-2.78;88.85;100733.30;107711;1254;98671;-57
2023/03/03 03:33:19;;;;;;;71.70;35.90;;;;;;;-2.79;89.04;100729.13;107617;1254;89050;-57
2023/03/03 03:35:59;;;;;;;69.90;35.50;;;;;;;-2.72;89.14;100729.73;107647;1255;93620;-62
2023/03/03 03:38:42;;;;;;;71.10;35.70;;;;;;;-2.74;89.00;100728.27;107594;1251;81465;-62
2023/03/03 03:41:26;;;;;;;71.70;36.60;;;;;;;-2.74;88.97;100729.84;107663;1254;81091;-56
2023/03/03 03:44:05;;;;;;;67.30;35.70;;;;;;;-2.74;88.59;100731.27;107642;1253;98238;-58
2023/03/03 03:46:50;;;;;;;73.30;37.50;;;;;;;-2.75;89.01;100726.61;107646;1254;86501;-57
2023/03/03 03:49:31;;;;;;;67.50;36.10;;;;;;;-2.74;88.96;100725.81;107591;1253;96773;-63
2023/03/03 03:52:13;;;;;;;73.90;37.20;;;;;;;-2.75;89.07;100713.55;107667;1252;80831;-63
2023/03/03 03:54:53;;;;;;;73.40;38.00;;;;;;;-2.76;88.75;100701.65;107663;1253;82954;-64
2023/03/03 03:57:40;;;;;;;73.50;36.80;;;;;;;-2.75;89.17;100703.88;107648;1251;96285;-63
2023/03/03 04:00:16;;;;;;;77.60;38.90;;;;;;;-2.76;89.07;100709.53;107613;1255;89288;-58
2023/03/03 04:02:55;;;;;;;76.80;35.30;;;;;;;-2.79;88.92;100717.70;107638;1251;96160;-58
2023/03/03 04:05:38;;;;;;;73.20;37.60;;;;;;;-2.78;89.33;100711.98;107601;1254;81354;-63
2023/03/03 04:08:18;;;;;;;67.90;35.90;;;;;;;-2.76;89.12;100710.59;107638;1254;81989;-61
2023/03/03 04:11:01;;;;;;;77.40;38.80;;;;;;;-2.80;89.13;100711.06;107644;1251;98661;-60
2023/03/03 04:13:41;;;;;;;76.00;37.90;;;;;;;-2.80;89.30;100711.23;107642;1251;87190;-60
2023/03/03 04:16:23;;;;;;;69.90;37.90;;;;;;;-2.83;88.92;100709.84;107627;1254;95501;-55
2023/03/03 04:19:10;;;;;;;71.90;36.20;;;;;;;-2.86;89.01;100708.28;107614;1253;82359;-58
2023/03/03 04:21:48;;;;;;;72.60;37.10;;;;;;;-2.83;89.19;100704.21;107631;1252;83011;-61
2023/03/03 04:24:31;;;;;;;72.00;38.70;;;;;;;-2.83;89.46;100695.40;107627;1254;98299;-61
2023/03/03 04:27:07;;;;;;;71.90;36.30;;;;;;;-2.73;89.67;100691.08;107613;1254;89562;-63
2023/03/03 04:29:48;;;;;;;71.90;36.70;;;;;;;-2.70;89.46;100687.65;107628;1252;95537;-61
2023/03/03 04:32:27;;;;;;;73.40;36.30;;;;;;;-2.71;89.43;100682.41;107614;1254;81411;-60
2023/03/03 04:35:08;;;;;;;70.30;37.10;;;;;;;-2.72;89.49;100687.63;107611;1252;83316;-58
2023/03/03 04:37:48;;;;;;;73.00;35.10;;;;;;;-2.77;89.24;100688.64;107697;1254;97789;-57
2023/03/03 04:40:29;;;;;;;73.20;37.80;;;;;;;-2.83;89.26;100690.97;107617;1254;88384;-62
2023/03/03 04:43:11;;;;;;;81.40;39.80;;;;;;;-2.81;89.38;100686.25;107659;1253;94545;-63
2023/03/03 04:45:53;;;;;;;74.00;38.60;;;;;;;-2.74;89.60;100680.33;107643;1251;81877;-60
2023/03/03 04:48:35;;;;;;;84.20;43.00;;;;;;;-2.74;89.55;100677.17;107645;1254;82601;-60
2023/03/03 04:51:19;;;;;;;82.00;41.60;;;;;;;-2.75;89.63;100679.69;107635;1251;99126;-55
2023/03/03 04:53:56;;;;;;;68.00;34.70;;;;;;;-2.75;89.60;100677.78;107620;1254;88186;-55
2023/03/03 04:56:37;;;;;;;90.40;45.20;;;;;;;-2.74;89.77;100676.27;107641;1254;95764;-62
2023/03/03 04:59:19;;;;;;;98.30;47.80;;;;;;;-2.71;89.92;100669.42;107661;1251;81171;-62
2023/03/03 05:02:04;;;;;;;87.70;45.30;;;;;;;-2.70;89.91;100664.39;107650;1254;80873;-62
2023/03/03 05:04:43;;;;;;;86.90;45.30;;;;;;;-2.68;90.03;100662.71;107618;1254;98695;-62
2023/03/03 05:07:23;;;;;;;93.00;45.00;;;;;;;-2.69;89.77;100665.61;107616;1254;89451;-62
2023/03/03 05:10:05;;;;;;;84.80;42.90;;;;;;;-2.73;89.69;100664.07;107651;1255;94891;-52
2023/03/03 05:12:45;;;;;;;91.90;45.70;;;;;;;-2.71;89.74;100661.83;107617;1251;79497;-57
2023/03/03 05:15:25;;;;;;;91.30;44.00;;;;;;;-2.59;90.09;100665.59;107658;1251;83245;-59
2023/03/03 05:18:07;;;;;;;89.20;43.70;;;;;;;-2.47;90.23;100667.30;107630;1254;98955;-59
2023/03/03 05:20:47;;;;;;;100.90;48.70;;;;;;;-2.33;90.50;100666.19;107666;1254;87375;-60
2023/03/03 05:23:30;;;;;;;93.20;47.40;;;;;;;-2.23;90.46;100666.38;107630;1255;92468;-60
2023/03/03 05:26:08;;;;;;;94.10;45.70;;;;;;;-2.16;90.29;100660.65;107631;1251;82352;-62
2023/03/03 05:28:42;;;;;;;87.10;42.50;;;;;;;-2.12;90.12;100662.46;107668;1251;83224;-62
2023/03/03 05:31:23;;;;;;;;;;;;;;;-2.12;90.10;100663.33;107654;1254;97334;-60
2023/03/03 05:34:01;;;;;;;93.30;45.80;;;;;;;-2.10;89.89;100664.47;107660;1251;87884;-59
2023/03/03 05:36:38;;;;;;;88.60;45.80;;;;;;;-2.06;90.10;100664.16;107660;1254;91973;-55
2023/03/03 05:39:17;;;;;;;97.60;47.90;;;;;;;-1.98;90.17;100666.65;107634;1253;81289;-60
2023/03/03 05:41:57;;;;;;;95.50;47.20;;;;;;;-1.92;89.90;100664.25;107631;1256;83055;-60
2023/03/03 05:44:40;;;;;;;100.40;47.50;;;;;;;-1.86;90.06;100666.83;107643;1251;98540;-58
2023/03/03 05:47:20;;;;;;;99.50;45.30;;;;;;;-1.73;90.09;100663.36;107655;1253;87912;-57
2023/03/03 05:50:05;;;;;;;95.20;46.80;;;;;;;-1.69;90.04;100660.08;107640;1255;95280;-60
2023/03/03 05:52:48;;;;;;;101.80;46.90;;;;;;;-1.59;89.94;100661.14;107618;1253;79979;-59
2023/03/03 05:55:32;;;;;;;99.70;47.30;;;;;;;-1.52;89.85;100657.48;107623;1251;83278;-56
2023/03/03 05:58:16;;;;;;;103.40;48.50;;;;;;;-1.44;89.92;100656.02;107655;1254;99315;-57
2023/03/03 06:01:03;;;;;;;104.00;49.20;;;;;;;-1.40;90.06;100653.60;107663;1251;88716;-58
2023/03/03 06:03:45;;;;;;;102.50;48.50;;;;;;;-1.35;90.05;100656.77;107650;1253;95510;-57
2023/03/03 06:06:25;;;;;;;109.50;50.00;;;;;;;-1.33;89.83;100657.34;107633;1252;81346;-56
2023/03/03 06:09:09;;;;;;;102.90;47.40;;;;;;;-1.33;89.81;100657.15;107688;1254;81520;-56
2023/03/03 06:11:54;;;;;;;85.50;41.10;;;;;;;-1.31;89.78;100662.48;107649;1253;98311;-50
2023/03/03 06:14:35;;;;;;;106.30;48.50;;;;;;;-1.30;89.80;100665.98;107668;1254;89223;-64
2023/03/03 06:17:16;;;;;;;99.10;46.90;;;;;;;-1.26;89.93;100665.48;107610;1255;94325;-64
2023/03/03 06:19:59;;;;;;;95.30;45.10;;;;;;;-1.23;89.81;100668.42;107642;1253;80542;-60
2023/03/03 06:22:36;;;;;;;96.90;47.60;;;;;;;-1.18;89.84;100667.22;107630;1255;82291;-61
2023/03/03 06:25:13;;;;;;;101.80;47.30;;;;;;;-1.11;89.88;100665.11;107650;1255;98260;-61
2023/03/03 06:27:53;;;;;;;96.80;47.50;;;;;;;-1.01;89.72;100661.95;107640;1250;87609;-60
2023/03/03 06:30:29;;;;;;;94.90;45.10;;;;;;;-0.95;89.65;100657.11;107674;1252;95536;-62
2023/03/03 06:33:09;;;;;;;86.30;41.40;;;;;;;-0.90;89.86;100651.61;107685;1251;81192;-62
2023/03/03 06:35:49;;;;;;;87.50;42.60;;;;;;;-0.88;89.63;100653.52;107701;1254;80931;-60
2023/03/03 06:38:27;;;;;;;88.20;42.30;;;;;;;-0.89;89.59;100661.38;107668;1254;97753;-61
2023/03/03 06:41:06;;;;;;;87.80;43.10;;;;;;;-0.90;89.52;100660.80;107683;1254;89088;-62
2023/03/03 06:43:46;;;;;;;85.20;42.50;;;;;;;-0.92;89.59;100658.15;107660;1256;94284;-55
2023/03/03 06:46:24;;;;;;;87.60;41.60;;;;;;;-1.00;89.65;100658.85;107665;1256;78649;-57
2023/03/03 06:49:03;;;;;;;76.20;37.90;;;;;;;-1.03;89.58;100659.29;107645;1251;81405;-57
2023/03/03 06:51:47;;;;;;;76.30;36.60;;;;;;;-1.02;89.71;100656.38;107658;1251;98003;-56
2023/03/03 06:54:30;;;;;;;76.90;37.70;;;;;;;-0.97;89.64;100660.92;107669;1254;88985;-58
2023/03/03 06:57:17;;;;;;;71.00;35.00;;;;;;;-0.90;89.89;100658.15;107671;1252;95408;-60
2023/03/03 06:59:58;;;;;;;68.10;33.70;;;;;;;-0.83;89.83;100666.45;107686;1256;79395;-55
2023/03/03 07:02:35;;;;;;;67.60;34.00;;;;;;;-0.76;89.97;100657.48;107679;1254;82854;-55
2023/03/03 07:05:23;;;;;;;65.40;33.20;;;;;;;-0.64;90.05;100657.09;107637;1254;97647;-62
2023/03/03 07:08:06;;;;;;;67.50;34.00;;;;;;;-0.49;89.94;100659.02;107657;1254;88333;-64
2023/03/03 07:10:52;;;;;;;64.30;32.50;;;;;;;-0.43;89.99;100656.08;107653;1251;95638;-55
2023/03/03 07:13:34;;;;;;;60.60;30.80;;;;;;;-0.39;90.01;100657.19;107635;1256;81180;-56
2023/03/03 07:16:14;;;;;;;61.70;31.30;;;;;;;-0.38;89.90;100651.61;107669;1251;81741;-56
2023/03/03 07:18:53;;;;;;;57.70;32.30;;;;;;;-0.37;89.76;100650.48;107652;1251;97737;-56
2023/03/03 07:21:40;;;;;;;62.50;31.90;;;;;;;-0.39;89.69;100644.48;107682;1254;86868;-63
2023/03/03 07:24:28;;;;;;;56.90;29.10;;;;;;;-0.39;89.45;100643.60;107666;1253;94665;-64
2023/03/03 07:27:18;;;;;;;64.00;32.40;;;;;;;-0.41;89.87;100645.14;107622;1251;80638;-62
2023/03/03 07:30:02;;;;;;;63.60;31.40;;;;;;;-0.39;89.76;100642.52;107653;1256;82681;-63
2023/03/03 07:32:43;;;;;;;;;;;;;;;-0.32;89.93;100647.13;107645;1255;96242;-62
2023/03/03 07:35:52;;;;;;;65.90;32.60;;;;;;;-0.19;89.92;100652.49;107614;1251;87236;-56
2023/03/03 07:38:42;;;;;;;67.50;31.10;;;;;;;-0.10;90.07;100657.65;107656;1255;95500;-58
2023/03/03 07:41:23;;;;;;;58.30;30.30;;;;;;;-0.02;90.22;100655.09;107667;1253;78208;-64
2023/03/03 07:44:07;;;;;;;57.30;29.70;;;;;;;0.09;90.18;100655.99;107658;1251;81994;-57
2023/03/03 07:46:47;;;;;;;60.00;31.00;;;;;;;0.25;90.16;100657.05;107644;1256;98938;-61
2023/03/03 07:49:42;;;;;;;64.20;32.40;;;;;;;0.39;90.03;100661.67;107704;1254;88051;-58
2023/03/03 07:52:27;;;;;;;;;;;;;;;0.38;89.72;100660.52;107670;1251;94422;-58
2023/03/03 07:55:20;;;;;;;51.90;26.30;;;;;;;0.41;89.81;100666.44;107671;1256;78667;-60
2023/03/03 07:58:05;;;;;;;58.40;29.10;;;;;;;0.43;89.69;100665.04;107692;1256;82861;-56
2023/03/03 08:01:28;;;;;;;61.30;29.10;;;;;;;0.48;89.71;100666.27;107270;1257;96365;-55
2023/03/03 08:04:15;;;;;;;63.30;30.30;;;;;;;0.56;89.44;100669.33;107284;1257;88996;-57
2023/03/03 08:06:55;;;;;;;58.10;29.60;;;;;;;0.55;89.42;100663.40;107281;1256;94216;-61
2023/03/03 08:09:49;;;;;;;62.60;30.20;;;;;;;0.65;89.32;100666.94;107317;1258;81104;-60
2023/03/03 08:12:40;;;;;;;47.30;24.30;;;;;;;0.76;89.34;100669.42;107320;1258;82699;-61
2023/03/03 08:15:29;;;;;;;57.30;30.90;;;;;;;0.83;89.38;100674.15;107317;1256;98629;-62
2023/03/03 08:18:23;;;;;;;61.80;30.10;;;;;;;0.97;89.36;100678.52;107344;1257;85385;-58
2023/03/03 08:21:07;;;;;;;56.00;29.20;;;;;;;1.00;89.18;100685.35;107328;1258;93496;-61
2023/03/03 08:23:44;;;;;;;60.10;30.70;;;;;;;1.05;89.26;100686.75;107168;1257;80241;-63
2023/03/03 08:26:22;;;;;;;58.90;28.90;;;;;;;1.10;89.10;100684.05;107366;1258;81247;-60
2023/03/03 08:29:00;;;;;;;54.00;28.20;;;;;;;1.11;89.06;100691.59;107315;1258;98741;-59
2023/03/03 08:31:40;;;;;;;58.60;29.30;;;;;;;1.14;89.02;100700.40;107327;1258;87271;-57
2023/03/03 08:34:20;;;;;;;60.80;29.20;;;;;;;1.22;88.79;100706.15;107300;1261;94229;-54
2023/03/03 08:36:57;;;;;;;56.40;29.30;;;;;;;1.26;88.82;100716.13;107323;1255;80069;-56
2023/03/03 08:39:39;;;;;;;55.60;28.40;;;;;;;1.27;88.64;100728.05;107293;1257;83129;-55
2023/03/03 08:42:14;;;;;;;55.30;29.60;;;;;;;1.22;88.64;100724.25;107296;1256;98367;-59
2023/03/03 08:44:52;;;;;;;58.70;30.90;;;;;;;1.17;88.68;100721.92;107339;1259;89211;-59
2023/03/03 08:47:34;;;;;;;55.80;29.30;;;;;;;1.15;88.64;100715.38;107305;1258;95294;-63
2023/03/03 08:50:09;;;;;;;60.10;30.10;;;;;;;1.05;88.51;100715.09;107359;1256;79486;-63
2023/03/03 08:52:51;;;;;;;56.40;28.50;;;;;;;1.02;88.44;100719.97;107331;1259;82072;-60
2023/03/03 08:55:37;;;;;;;56.20;27.60;;;;;;;1.09;88.20;100718.00;107308;1257;98324;-61
2023/03/03 08:58:16;;;;;;;49.10;26.20;;;;;;;1.17;88.34;100718.43;107011;1257;424263;-57
2023/03/03 09:00:57;;;;;;;53.40;26.90;;;;;;;1.21;88.26;100714.55;107318;1257;92976;-62
2023/03/03 09:03:38;;;;;;;47.90;26.10;;;;;;;1.17;88.29;100715.17;107267;1259;79969;-63
2023/03/03 09:06:21;;;;;;;48.90;24.60;;;;;;;1.10;88.30;100709.18;107178;1257;83207;-56
2023/03/03 09:09:04;;;;;;;45.80;24.50;;;;;;;1.09;88.11;100711.59;107290;1257;95861;-57
2023/03/03 09:11:46;;;;;;;46.60;24.30;;;;;;;1.13;87.93;100708.61;107321;1257;87787;-64
2023/03/03 09:14:35;;;;;;;44.10;24.40;;;;;;;1.19;88.02;100708.17;107289;1259;94202;-63
2023/03/03 09:17:30;;;;;;;47.70;25.60;;;;;;;1.32;88.07;100710.84;107289;1259;80166;-60
2023/03/03 09:20:27;;;;;;;46.20;24.20;;;;;;;1.35;88.15;100703.09;107327;1258;82312;-61
2023/03/03 09:23:37;;;;;;;44.50;24.10;;;;;;;1.30;87.85;100699.61;107292;1260;99373;-61
2023/03/03 09:26:30;;;;;;;44.90;23.90;;;;;;;1.39;87.88;100693.71;107304;1257;87825;-63
2023/03/03 09:29:24;;;;;;;41.90;23.60;;;;;;;1.43;87.85;100689.14;107296;1256;93664;-61
2023/03/03 09:32:09;;;;;;;41.10;23.80;;;;;;;1.52;87.75;100682.73;107347;1257;79448;-60
2023/03/03 09:34:46;;;;;;;40.60;23.00;;;;;;;1.51;87.42;100674.29;107341;1257;82246;-59
2023/03/03 09:37:31;;;;;;;39.70;21.50;;;;;;;1.47;87.43;100678.92;107304;1255;98396;-56
2023/03/03 09:40:51;;;;;;;45.40;24.00;;;;;;;1.44;87.41;100676.12;107358;1257;88568;-57
2023/03/03 09:43:45;;;;;;;45.50;24.70;;;;;;;1.44;87.17;100674.84;107299;1257;93481;-60
2023/03/03 09:46:33;;;;;;;41.80;22.80;;;;;;;1.50;87.15;100670.44;107325;1259;80093;-60
2023/03/03 09:49:21;;;;;;;40.30;21.30;;;;;;;1.52;87.10;100660.22;107379;1260;82931;-62
2023/03/03 09:52:16;;;;;;;42.20;21.60;;;;;;;1.60;87.00;100663.80;107345;1259;97875;-63
2023/03/03 09:55:08;;;;;;;44.20;23.00;;;;;;;1.61;86.99;100661.44;107336;1257;88454;-62
2023/03/03 09:58:08;;;;;;;40.00;22.70;;;;;;;1.61;86.98;100659.28;107306;1259;93334;-59
2023/03/03 10:00:56;;;;;;;42.70;25.00;;;;;;;1.51;86.83;100660.48;107333;1257;78193;-59
2023/03/03 10:04:21;;;;;;;41.70;23.10;;;;;;;1.52;86.96;100663.76;107364;1257;82508;-58
2023/03/03 10:07:17;;;;;;;40.40;21.30;;;;;;;1.54;86.82;100660.00;107338;1258;98152;-62
2023/03/03 10:10:24;;;;;;;41.10;21.30;;;;;;;1.54;86.80;100664.27;107359;1257;89726;-63
2023/03/03 10:13:23;;;;;;;39.40;23.10;;;;;;;1.53;86.72;100668.42;107312;1257;92086;-61
2023/03/03 10:16:43;;;;;;;37.40;19.80;;;;;;;1.48;86.76;100669.02;107330;1256;81143;-62
2023/03/03 10:19:42;;;;;;;37.90;20.60;;;;;;;1.54;86.58;100664.60;107323;1257;83126;-62
2023/03/03 10:22:38;;;;;;;39.20;21.00;;;;;;;1.59;86.49;100666.69;107372;1257;98227;-57
2023/03/03 10:25:31;;;;;;;36.60;20.50;;;;;;;1.63;86.47;100666.55;107340;1257;89109;-55
2023/03/03 10:29:15;;;;;;;42.10;23.10;;;;;;;1.51;86.44;100665.27;107347;1257;93493;-59
2023/03/03 10:32:24;;;;;;;40.00;21.30;;;;;;;1.55;86.29;100662.59;106939;1261;80657;-55
2023/03/03 10:35:37;;;;;;;38.10;20.60;;;;;;;1.50;86.16;100666.59;106925;1260;82781;-56
2023/03/03 10:38:39;;;;;;;36.30;21.50;;;;;;;1.43;86.25;100673.55;107317;1258;98427;-62
2023/03/03 10:41:33;;;;;;;37.90;21.10;;;;;;;1.47;86.10;100680.98;107371;1257;88466;-62
2023/03/03 10:44:44;;;;;;;37.20;20.40;;;;;;;1.56;86.03;100683.13;107331;1256;95247;-61
2023/03/03 10:47:49;;;;;;;38.50;20.20;;;;;;;1.58;85.94;100690.21;107327;1256;80348;-57
2023/03/03 10:50:34;;;;;;;36.60;21.10;;;;;;;1.54;85.85;100690.91;107341;1256;82680;-58
2023/03/03 10:53:27;;;;;;;40.10;22.90;;;;;;;1.55;85.67;100686.73;107356;1256;98450;-62
2023/03/03 10:56:26;;;;;;;39.10;22.40;;;;;;;1.51;85.65;100688.70;107326;1257;88442;-61
2023/03/03 10:59:21;;;;;;;42.50;23.90;;;;;;;1.39;85.84;100685.20;107325;1257;93571;-62
2023/03/03 11:02:10;;;;;;;41.50;24.30;;;;;;;1.33;85.79;100679.48;107345;1257;80282;-61
2023/03/03 11:05:13;;;;;;;39.70;22.70;;;;;;;1.32;85.72;100679.41;107334;1255;82867;-61
2023/03/03 11:07:56;;;;;;;38.40;23.10;;;;;;;1.42;85.62;100686.26;107279;1258;98666;-61
2023/03/03 11:10:52;;;;;;;44.40;25.70;;;;;;;1.43;85.47;100691.80;107309;1257;87573;-60
2023/03/03 11:13:45;;;;;;;42.10;23.90;;;;;;;1.33;85.61;100693.70;107292;1256;95610;-55
2023/03/03 11:16:42;;;;;;;43.80;25.10;;;;;;;1.29;85.59;100697.61;107261;1257;78954;-63
2023/03/03 11:19:43;;;;;;;45.00;24.20;;;;;;;1.21;85.42;100699.95;107317;1258;81925;-63
2023/03/03 11:22:35;;;;;;;44.70;26.00;;;;;;;1.13;85.47;100693.92;107299;1257;97937;-57
2023/03/03 11:25:27;;;;;;;42.80;25.70;;;;;;;1.18;85.49;100691.16;107260;1257;87202;-58
2023/03/03 11:28:41;;;;;;;45.60;27.70;;;;;;;1.12;85.50;100682.06;107278;1260;93512;-62
2023/03/03 11:31:30;;;;;;;42.20;25.80;;;;;;;1.15;85.46;100674.80;107328;1257;80521;-60
2023/03/03 11:34:18;;;;;;;40.00;23.50;;;;;;;1.15;85.44;100670.85;107070;1256;81665;-63
2023/03/03 11:37:02;;;;;;;41.10;25.60;;;;;;;1.08;85.54;100666.45;107280;1257;98614;-63
2023/03/03 11:39:47;;;;;;;43.00;25.00;;;;;;;1.15;85.53;100663.25;107281;1257;88829;-63
2023/03/03 11:42:49;;;;;;;45.80;28.20;;;;;;;1.14;85.58;100662.63;107282;1257;95593;-62
2023/03/03 11:45:36;;;;;;;42.50;25.00;;;;;;;1.04;85.56;100654.05;107266;1257;80791;-63
2023/03/03 11:48:24;;;;;;;41.20;24.70;;;;;;;1.09;85.39;100659.33;107304;1257;82735;-62
2023/03/03 11:51:07;;;;;;;47.40;25.10;;;;;;;1.08;85.45;100659.02;107268;1255;98984;-61
2023/03/03 11:54:01;;;;;;;41.50;24.50;;;;;;;1.07;85.25;100658.91;107273;1258;87532;-61
2023/03/03 11:56:45;;;;;;;41.10;24.30;;;;;;;1.13;85.33;100658.95;107284;1257;94660;-59
2023/03/03 11:59:54;;;;;;;38.80;22.60;;;;;;;1.11;85.27;100667.64;107213;1257;81366;-57
2023/03/03 12:02:46;;;;;;;42.30;25.20;;;;;;;1.05;85.39;100664.95;107178;1255;82821;-57
2023/03/03 12:05:39;;;;;;;41.50;23.80;;;;;;;0.93;85.32;100663.38;107247;1257;98339;-53
2023/03/03 12:08:29;;;;;;;45.20;25.30;;;;;;;0.96;85.43;100662.80;107310;1257;88932;-60
2023/03/03 12:11:21;;;;;;;40.50;24.90;;;;;;;1.01;85.47;100666.54;107284;1257;94349;-56
2023/03/03 12:14:09;;;;;;;43.50;24.50;;;;;;;1.01;85.50;100671.61;107286;1257;80734;-62
2023/03/03 12:16:56;;;;;;;46.10;24.70;;;;;;;0.96;85.49;100663.67;107294;1256;83183;-63
2023/03/03 12:19:41;;;;;;;41.60;22.90;;;;;;;0.96;85.43;100663.14;107285;1259;95895;-63
2023/03/03 12:22:41;;;;;;;38.60;22.60;;;;;;;0.98;85.42;100662.45;107270;1257;88052;-63
2023/03/03 12:25:37;;;;;;;38.60;21.90;;;;;;;1.01;85.39;100665.80;107267;1255;94303;-63
2023/03/03 12:28:21;;;;;;;38.60;21.90;;;;;;;1.07;85.40;100666.91;107269;1257;79478;-50